sensor_id;sensor_type;location;lat;lon;timestamp;P1;durP1;ratioP1;P2;durP2;ratioP2
54853;SDS011;40747;49.480;8.658;2023-01-06T00:01:08;4.22;;;2.78;;
54853;SDS011;40747;49.480;8.658;2023-01-06T00:03:36;7.78;;;2.15;;
54853;SDS011;40747;49.480;8.658;2023-01-06T00:06:02;8.93;;;2.00;;
54853;SDS011;40747;49.480;8.658;2023-01-06T00:08:28;5.63;;;2.13;;
54853;SDS011;40747;49.480;8.658;2023-01-06T00:10:54;2.22;;;1.55;;
54853;SDS011;40747;49.480;8.658;2023-01-06T00:13:20;4.65;;;2.70;;
54853;SDS011;40747;49.480;8.658;2023-01-06T00:15:45;2.30;;;1.70;;
54853;SDS011;40747;49.480;8.658;2023-01-06T00:18:10;4.35;;;2.10;;
54853;SDS011;40747;49.480;8.658;2023-01-06T00:20:35;2.88;;;2.13;;
54853;SDS011;40747;49.480;8.658;2023-01-06T00:23:01;3.30;;;1.85;;
54853;SDS011;40747;49.480;8.658;2023-01-06T00:25:27;3.28;;;2.15;;
54853;SDS011;40747;49.480;8.658;2023-01-06T00:27:53;3.40;;;2.05;;
54853;SDS011;40747;49.480;8.658;2023-01-06T00:30:19;2.33;;;1.75;;
54853;SDS011;40747;49.480;8.658;2023-01-06T00:32:44;2.53;;;1.73;;
54853;SDS011;40747;49.480;8.658;2023-01-06T00:35:10;3.60;;;1.92;;
54853;SDS011;40747;49.480;8.658;2023-01-06T00:37:35;4.97;;;1.75;;
54853;SDS011;40747;49.480;8.658;2023-01-06T00:40:01;2.60;;;2.03;;
54853;SDS011;40747;49.480;8.658;2023-01-06T00:42:26;6.70;;;2.40;;
54853;SDS011;40747;49.480;8.658;2023-01-06T00:44:51;5.07;;;2.30;;
54853;SDS011;40747;49.480;8.658;2023-01-06T00:47:17;2.85;;;2.03;;
54853;SDS011;40747;49.480;8.658;2023-01-06T00:49:43;4.43;;;2.05;;
54853;SDS011;40747;49.480;8.658;2023-01-06T00:52:08;6.15;;;2.25;;
54853;SDS011;40747;49.480;8.658;2023-01-06T00:54:33;2.45;;;1.52;;
54853;SDS011;40747;49.480;8.658;2023-01-06T00:57:00;6.07;;;1.95;;
54853;SDS011;40747;49.480;8.658;2023-01-06T00:59:26;3.90;;;1.80;;
54853;SDS011;40747;49.480;8.658;2023-01-06T01:01:52;3.38;;;1.75;;
54853;SDS011;40747;49.480;8.658;2023-01-06T01:04:19;2.58;;;1.75;;
54853;SDS011;40747;49.480;8.658;2023-01-06T01:06:45;3.47;;;1.73;;
54853;SDS011;40747;49.480;8.658;2023-01-06T01:09:12;3.35;;;2.15;;
54853;SDS011;40747;49.480;8.658;2023-01-06T01:11:40;2.55;;;1.55;;
54853;SDS011;40747;49.480;8.658;2023-01-06T01:14:24;5.18;;;1.88;;
54853;SDS011;40747;49.480;8.658;2023-01-06T01:16:49;2.78;;;1.63;;
54853;SDS011;40747;49.480;8.658;2023-01-06T01:19:15;2.63;;;1.98;;
54853;SDS011;40747;49.480;8.658;2023-01-06T01:21:41;2.83;;;1.63;;
54853;SDS011;40747;49.480;8.658;2023-01-06T01:24:06;3.35;;;1.40;;
54853;SDS011;40747;49.480;8.658;2023-01-06T01:26:32;7.28;;;2.63;;
54853;SDS011;40747;49.480;8.658;2023-01-06T01:28:57;5.72;;;2.28;;
54853;SDS011;40747;49.480;8.658;2023-01-06T01:31:22;2.17;;;1.67;;
54853;SDS011;40747;49.480;8.658;2023-01-06T01:33:48;2.63;;;0.98;;
54853;SDS011;40747;49.480;8.658;2023-01-06T01:36:15;1.95;;;1.50;;
54853;SDS011;40747;49.480;8.658;2023-01-06T01:38:41;2.55;;;1.77;;
54853;SDS011;40747;49.480;8.658;2023-01-06T01:41:07;3.67;;;1.40;;
54853;SDS011;40747;49.480;8.658;2023-01-06T01:46:15;4.13;;;1.27;;
54853;SDS011;40747;49.480;8.658;2023-01-06T01:48:43;2.40;;;1.27;;
54853;SDS011;40747;49.480;8.658;2023-01-06T01:51:10;6.00;;;1.95;;
54853;SDS011;40747;49.480;8.658;2023-01-06T01:53:40;3.22;;;1.48;;
54853;SDS011;40747;49.480;8.658;2023-01-06T01:56:08;1.90;;;1.38;;
54853;SDS011;40747;49.480;8.658;2023-01-06T01:58:42;2.90;;;1.73;;
54853;SDS011;40747;49.480;8.658;2023-01-06T02:01:12;3.65;;;1.67;;
54853;SDS011;40747;49.480;8.658;2023-01-06T02:03:39;3.95;;;1.70;;
54853;SDS011;40747;49.480;8.658;2023-01-06T02:06:08;3.55;;;1.85;;
54853;SDS011;40747;49.480;8.658;2023-01-06T02:11:24;3.50;;;1.40;;
54853;SDS011;40747;49.480;8.658;2023-01-06T02:13:53;3.17;;;1.50;;
54853;SDS011;40747;49.480;8.658;2023-01-06T02:19:49;2.42;;;1.25;;
54853;SDS011;40747;49.480;8.658;2023-01-06T02:30:37;3.92;;;1.80;;
54853;SDS011;40747;49.480;8.658;2023-01-06T02:36:13;2.75;;;1.90;;
54853;SDS011;40747;49.480;8.658;2023-01-06T02:39:00;1.33;;;0.88;;
54853;SDS011;40747;49.480;8.658;2023-01-06T02:41:36;2.13;;;1.27;;
54853;SDS011;40747;49.480;8.658;2023-01-06T02:47:10;2.47;;;1.38;;
54853;SDS011;40747;49.480;8.658;2023-01-06T02:49:56;3.45;;;1.40;;
54853;SDS011;40747;49.480;8.658;2023-01-06T02:57:54;3.77;;;1.47;;
54853;SDS011;40747;49.480;8.658;2023-01-06T03:00:30;3.25;;;1.23;;
54853;SDS011;40747;49.480;8.658;2023-01-06T03:03:04;2.00;;;1.15;;
54853;SDS011;40747;49.480;8.658;2023-01-06T03:05:33;2.63;;;1.30;;
54853;SDS011;40747;49.480;8.658;2023-01-06T03:08:01;1.63;;;1.13;;
54853;SDS011;40747;49.480;8.658;2023-01-06T03:10:32;2.92;;;1.98;;
54853;SDS011;40747;49.480;8.658;2023-01-06T03:12:59;2.05;;;1.08;;
54853;SDS011;40747;49.480;8.658;2023-01-06T03:15:30;1.75;;;0.95;;
54853;SDS011;40747;49.480;8.658;2023-01-06T03:17:55;2.38;;;1.33;;
54853;SDS011;40747;49.480;8.658;2023-01-06T03:20:21;3.97;;;1.45;;
54853;SDS011;40747;49.480;8.658;2023-01-06T03:22:46;2.80;;;1.35;;
54853;SDS011;40747;49.480;8.658;2023-01-06T03:25:12;3.47;;;1.83;;
54853;SDS011;40747;49.480;8.658;2023-01-06T03:27:38;1.63;;;1.45;;
54853;SDS011;40747;49.480;8.658;2023-01-06T03:30:04;2.85;;;1.80;;
54853;SDS011;40747;49.480;8.658;2023-01-06T03:35:20;2.67;;;1.63;;
54853;SDS011;40747;49.480;8.658;2023-01-06T03:37:55;2.63;;;1.55;;
54853;SDS011;40747;49.480;8.658;2023-01-06T03:40:34;6.25;;;2.03;;
54853;SDS011;40747;49.480;8.658;2023-01-06T03:45:53;2.42;;;1.45;;
54853;SDS011;40747;49.480;8.658;2023-01-06T03:48:30;2.55;;;1.83;;
54853;SDS011;40747;49.480;8.658;2023-01-06T03:53:44;3.15;;;1.48;;
54853;SDS011;40747;49.480;8.658;2023-01-06T03:58:43;2.90;;;1.65;;
54853;SDS011;40747;49.480;8.658;2023-01-06T04:01:12;4.90;;;1.83;;
54853;SDS011;40747;49.480;8.658;2023-01-06T04:03:39;4.88;;;2.10;;
54853;SDS011;40747;49.480;8.658;2023-01-06T04:06:09;2.20;;;1.55;;
54853;SDS011;40747;49.480;8.658;2023-01-06T04:08:34;3.10;;;1.70;;
54853;SDS011;40747;49.480;8.658;2023-01-06T04:10:59;2.40;;;1.55;;
54853;SDS011;40747;49.480;8.658;2023-01-06T04:13:24;3.75;;;1.83;;
54853;SDS011;40747;49.480;8.658;2023-01-06T04:15:50;4.53;;;1.30;;
54853;SDS011;40747;49.480;8.658;2023-01-06T04:18:15;3.00;;;1.67;;
54853;SDS011;40747;49.480;8.658;2023-01-06T04:20:40;1.73;;;1.08;;
54853;SDS011;40747;49.480;8.658;2023-01-06T04:23:06;3.63;;;1.65;;
54853;SDS011;40747;49.480;8.658;2023-01-06T04:25:31;1.77;;;1.33;;
54853;SDS011;40747;49.480;8.658;2023-01-06T04:27:56;2.42;;;1.40;;
54853;SDS011;40747;49.480;8.658;2023-01-06T04:30:22;2.17;;;1.38;;
54853;SDS011;40747;49.480;8.658;2023-01-06T04:32:47;5.72;;;1.45;;
54853;SDS011;40747;49.480;8.658;2023-01-06T04:35:12;2.88;;;1.15;;
54853;SDS011;40747;49.480;8.658;2023-01-06T04:37:38;3.50;;;1.30;;
54853;SDS011;40747;49.480;8.658;2023-01-06T04:40:03;1.58;;;1.15;;
54853;SDS011;40747;49.480;8.658;2023-01-06T04:42:31;2.28;;;1.23;;
54853;SDS011;40747;49.480;8.658;2023-01-06T04:45:16;2.67;;;1.48;;
54853;SDS011;40747;49.480;8.658;2023-01-06T04:47:42;5.55;;;1.80;;
54853;SDS011;40747;49.480;8.658;2023-01-06T04:50:07;3.33;;;1.25;;
54853;SDS011;40747;49.480;8.658;2023-01-06T04:52:32;1.88;;;1.20;;
54853;SDS011;40747;49.480;8.658;2023-01-06T04:54:57;2.70;;;1.13;;
54853;SDS011;40747;49.480;8.658;2023-01-06T04:57:23;1.15;;;1.02;;
54853;SDS011;40747;49.480;8.658;2023-01-06T04:59:48;2.30;;;1.25;;
54853;SDS011;40747;49.480;8.658;2023-01-06T05:02:13;1.58;;;1.23;;
54853;SDS011;40747;49.480;8.658;2023-01-06T05:04:39;3.03;;;1.63;;
54853;SDS011;40747;49.480;8.658;2023-01-06T05:07:04;1.90;;;0.95;;
54853;SDS011;40747;49.480;8.658;2023-01-06T05:09:29;2.03;;;1.10;;
54853;SDS011;40747;49.480;8.658;2023-01-06T05:11:54;1.48;;;1.00;;
54853;SDS011;40747;49.480;8.658;2023-01-06T05:14:19;2.25;;;1.05;;
54853;SDS011;40747;49.480;8.658;2023-01-06T05:16:45;1.95;;;1.25;;
54853;SDS011;40747;49.480;8.658;2023-01-06T05:19:10;3.28;;;1.13;;
54853;SDS011;40747;49.480;8.658;2023-01-06T05:21:35;5.65;;;1.25;;
54853;SDS011;40747;49.480;8.658;2023-01-06T05:24:01;2.53;;;1.15;;
54853;SDS011;40747;49.480;8.658;2023-01-06T05:26:26;3.30;;;1.08;;
54853;SDS011;40747;49.480;8.658;2023-01-06T05:28:52;1.30;;;0.82;;
54853;SDS011;40747;49.480;8.658;2023-01-06T05:31:18;2.13;;;1.10;;
54853;SDS011;40747;49.480;8.658;2023-01-06T05:33:43;1.88;;;1.00;;
54853;SDS011;40747;49.480;8.658;2023-01-06T05:36:10;1.15;;;0.68;;
54853;SDS011;40747;49.480;8.658;2023-01-06T05:38:38;2.40;;;0.68;;
54853;SDS011;40747;49.480;8.658;2023-01-06T05:41:04;2.25;;;0.90;;
54853;SDS011;40747;49.480;8.658;2023-01-06T05:43:29;1.77;;;1.17;;
54853;SDS011;40747;49.480;8.658;2023-01-06T05:45:57;1.00;;;0.90;;
54853;SDS011;40747;49.480;8.658;2023-01-06T05:48:24;1.38;;;0.95;;
54853;SDS011;40747;49.480;8.658;2023-01-06T05:50:51;0.52;;;0.52;;
54853;SDS011;40747;49.480;8.658;2023-01-06T05:53:17;1.38;;;0.90;;
54853;SDS011;40747;49.480;8.658;2023-01-06T05:55:42;2.83;;;1.27;;
54853;SDS011;40747;49.480;8.658;2023-01-06T05:58:08;1.63;;;1.23;;
54853;SDS011;40747;49.480;8.658;2023-01-06T06:00:33;7.05;;;1.13;;
54853;SDS011;40747;49.480;8.658;2023-01-06T06:02:58;1.40;;;0.90;;
54853;SDS011;40747;49.480;8.658;2023-01-06T06:05:24;2.33;;;1.30;;
54853;SDS011;40747;49.480;8.658;2023-01-06T06:07:53;1.00;;;0.80;;
54853;SDS011;40747;49.480;8.658;2023-01-06T06:10:19;1.95;;;1.30;;
54853;SDS011;40747;49.480;8.658;2023-01-06T06:12:44;3.47;;;1.83;;
54853;SDS011;40747;49.480;8.658;2023-01-06T06:15:10;0.75;;;0.75;;
54853;SDS011;40747;49.480;8.658;2023-01-06T06:17:35;2.42;;;1.20;;
54853;SDS011;40747;49.480;8.658;2023-01-06T06:20:00;1.65;;;0.93;;
54853;SDS011;40747;49.480;8.658;2023-01-06T06:22:26;1.80;;;1.00;;
54853;SDS011;40747;49.480;8.658;2023-01-06T06:24:51;2.22;;;1.20;;
54853;SDS011;40747;49.480;8.658;2023-01-06T06:27:16;0.60;;;0.55;;
54853;SDS011;40747;49.480;8.658;2023-01-06T06:29:41;0.65;;;0.65;;
54853;SDS011;40747;49.480;8.658;2023-01-06T06:32:07;1.40;;;0.90;;
54853;SDS011;40747;49.480;8.658;2023-01-06T06:34:32;1.52;;;1.17;;
54853;SDS011;40747;49.480;8.658;2023-01-06T06:36:58;1.40;;;0.80;;
54853;SDS011;40747;49.480;8.658;2023-01-06T06:39:23;1.63;;;0.80;;
54853;SDS011;40747;49.480;8.658;2023-01-06T06:41:48;1.45;;;0.90;;
54853;SDS011;40747;49.480;8.658;2023-01-06T06:44:13;1.70;;;0.80;;
54853;SDS011;40747;49.480;8.658;2023-01-06T06:46:39;3.50;;;1.35;;
54853;SDS011;40747;49.480;8.658;2023-01-06T06:49:04;2.00;;;0.95;;
54853;SDS011;40747;49.480;8.658;2023-01-06T06:51:29;1.83;;;0.90;;
54853;SDS011;40747;49.480;8.658;2023-01-06T06:53:55;2.97;;;1.13;;
54853;SDS011;40747;49.480;8.658;2023-01-06T06:56:21;1.40;;;1.10;;
54853;SDS011;40747;49.480;8.658;2023-01-06T06:58:46;2.05;;;1.23;;
54853;SDS011;40747;49.480;8.658;2023-01-06T07:01:14;1.98;;;1.08;;
54853;SDS011;40747;49.480;8.658;2023-01-06T07:03:42;4.43;;;1.65;;
54853;SDS011;40747;49.480;8.658;2023-01-06T07:06:08;2.85;;;1.40;;
54853;SDS011;40747;49.480;8.658;2023-01-06T07:08:35;1.92;;;1.17;;
54853;SDS011;40747;49.480;8.658;2023-01-06T07:11:00;3.45;;;1.42;;
54853;SDS011;40747;49.480;8.658;2023-01-06T07:13:26;2.67;;;1.58;;
54853;SDS011;40747;49.480;8.658;2023-01-06T07:15:52;1.63;;;1.00;;
54853;SDS011;40747;49.480;8.658;2023-01-06T07:18:17;1.85;;;1.20;;
54853;SDS011;40747;49.480;8.658;2023-01-06T07:20:45;1.35;;;1.08;;
54853;SDS011;40747;49.480;8.658;2023-01-06T07:23:12;2.70;;;1.40;;
54853;SDS011;40747;49.480;8.658;2023-01-06T07:25:37;1.85;;;1.15;;
54853;SDS011;40747;49.480;8.658;2023-01-06T07:28:03;1.80;;;1.05;;
54853;SDS011;40747;49.480;8.658;2023-01-06T07:30:29;2.30;;;1.30;;
54853;SDS011;40747;49.480;8.658;2023-01-06T07:32:55;2.03;;;1.25;;
54853;SDS011;40747;49.480;8.658;2023-01-06T07:35:21;1.42;;;0.80;;
54853;SDS011;40747;49.480;8.658;2023-01-06T07:37:46;1.63;;;0.90;;
54853;SDS011;40747;49.480;8.658;2023-01-06T07:40:12;1.85;;;1.05;;
54853;SDS011;40747;49.480;8.658;2023-01-06T07:42:37;1.10;;;0.43;;
54853;SDS011;40747;49.480;8.658;2023-01-06T07:45:03;0.68;;;0.50;;
54853;SDS011;40747;49.480;8.658;2023-01-06T07:47:29;1.85;;;0.50;;
54853;SDS011;40747;49.480;8.658;2023-01-06T07:49:54;1.13;;;0.68;;
54853;SDS011;40747;49.480;8.658;2023-01-06T07:52:19;0.70;;;0.50;;
54853;SDS011;40747;49.480;8.658;2023-01-06T07:54:45;0.32;;;0.32;;
54853;SDS011;40747;49.480;8.658;2023-01-06T07:57:10;2.05;;;0.63;;
54853;SDS011;40747;49.480;8.658;2023-01-06T07:59:38;1.98;;;0.82;;
54853;SDS011;40747;49.480;8.658;2023-01-06T08:02:03;2.00;;;1.02;;
54853;SDS011;40747;49.480;8.658;2023-01-06T08:04:28;2.05;;;1.25;;
54853;SDS011;40747;49.480;8.658;2023-01-06T08:06:54;1.20;;;0.77;;
54853;SDS011;40747;49.480;8.658;2023-01-06T08:09:19;0.45;;;0.40;;
54853;SDS011;40747;49.480;8.658;2023-01-06T08:11:44;1.17;;;0.50;;
54853;SDS011;40747;49.480;8.658;2023-01-06T08:14:10;2.50;;;0.70;;
54853;SDS011;40747;49.480;8.658;2023-01-06T08:16:39;0.20;;;0.20;;
54853;SDS011;40747;49.480;8.658;2023-01-06T08:19:05;3.58;;;0.88;;
54853;SDS011;40747;49.480;8.658;2023-01-06T08:21:31;1.35;;;0.77;;
54853;SDS011;40747;49.480;8.658;2023-01-06T08:23:56;1.63;;;0.68;;
54853;SDS011;40747;49.480;8.658;2023-01-06T08:26:22;2.60;;;0.68;;
54853;SDS011;40747;49.480;8.658;2023-01-06T08:28:47;0.25;;;0.25;;
54853;SDS011;40747;49.480;8.658;2023-01-06T08:31:13;0.88;;;0.55;;
54853;SDS011;40747;49.480;8.658;2023-01-06T08:33:41;0.55;;;0.50;;
54853;SDS011;40747;49.480;8.658;2023-01-06T08:36:07;0.47;;;0.35;;
54853;SDS011;40747;49.480;8.658;2023-01-06T08:38:35;0.30;;;0.30;;
54853;SDS011;40747;49.480;8.658;2023-01-06T08:41:01;0.88;;;0.60;;
54853;SDS011;40747;49.480;8.658;2023-01-06T08:43:27;1.63;;;0.50;;
54853;SDS011;40747;49.480;8.658;2023-01-06T08:45:52;0.63;;;0.35;;
54853;SDS011;40747;49.480;8.658;2023-01-06T08:48:19;0.77;;;0.63;;
54853;SDS011;40747;49.480;8.658;2023-01-06T08:50:44;3.63;;;0.68;;
54853;SDS011;40747;49.480;8.658;2023-01-06T08:53:10;0.95;;;0.65;;
54853;SDS011;40747;49.480;8.658;2023-01-06T08:55:40;0.70;;;0.55;;
54853;SDS011;40747;49.480;8.658;2023-01-06T08:58:06;2.30;;;0.50;;
54853;SDS011;40747;49.480;8.658;2023-01-06T09:00:33;1.83;;;0.57;;
54853;SDS011;40747;49.480;8.658;2023-01-06T09:02:59;2.55;;;0.70;;
54853;SDS011;40747;49.480;8.658;2023-01-06T09:05:25;4.95;;;1.00;;
54853;SDS011;40747;49.480;8.658;2023-01-06T09:07:50;0.65;;;0.60;;
54853;SDS011;40747;49.480;8.658;2023-01-06T09:10:16;0.70;;;0.40;;
54853;SDS011;40747;49.480;8.658;2023-01-06T09:12:43;0.80;;;0.55;;
54853;SDS011;40747;49.480;8.658;2023-01-06T09:15:08;0.68;;;0.50;;
54853;SDS011;40747;49.480;8.658;2023-01-06T09:17:34;1.80;;;0.57;;
54853;SDS011;40747;49.480;8.658;2023-01-06T09:19:59;0.45;;;0.30;;
54853;SDS011;40747;49.480;8.658;2023-01-06T09:22:25;1.33;;;0.43;;
54853;SDS011;40747;49.480;8.658;2023-01-06T09:24:50;0.75;;;0.50;;
54853;SDS011;40747;49.480;8.658;2023-01-06T09:27:15;0.95;;;0.40;;
54853;SDS011;40747;49.480;8.658;2023-01-06T09:29:40;5.15;;;0.60;;
54853;SDS011;40747;49.480;8.658;2023-01-06T09:32:06;3.17;;;0.65;;
54853;SDS011;40747;49.480;8.658;2023-01-06T09:34:31;0.60;;;0.50;;
54853;SDS011;40747;49.480;8.658;2023-01-06T09:36:57;1.75;;;0.60;;
54853;SDS011;40747;49.480;8.658;2023-01-06T09:39:22;2.50;;;0.50;;
54853;SDS011;40747;49.480;8.658;2023-01-06T09:44:25;1.50;;;0.75;;
54853;SDS011;40747;49.480;8.658;2023-01-06T09:46:54;1.80;;;0.90;;
54853;SDS011;40747;49.480;8.658;2023-01-06T09:49:24;1.35;;;1.02;;
54853;SDS011;40747;49.480;8.658;2023-01-06T09:51:53;3.55;;;1.10;;
54853;SDS011;40747;49.480;8.658;2023-01-06T09:54:34;3.33;;;0.70;;
54853;SDS011;40747;49.480;8.658;2023-01-06T09:57:06;3.60;;;1.13;;
54853;SDS011;40747;49.480;8.658;2023-01-06T09:59:56;1.02;;;0.63;;
54853;SDS011;40747;49.480;8.658;2023-01-06T10:02:28;1.90;;;1.05;;
54853;SDS011;40747;49.480;8.658;2023-01-06T10:04:58;0.70;;;0.30;;
54853;SDS011;40747;49.480;8.658;2023-01-06T10:07:26;0.88;;;0.55;;
54853;SDS011;40747;49.480;8.658;2023-01-06T10:21:51;2.78;;;0.57;;
54853;SDS011;40747;49.480;8.658;2023-01-06T10:24:29;1.90;;;0.75;;
54853;SDS011;40747;49.480;8.658;2023-01-06T10:30:05;1.88;;;0.45;;
54853;SDS011;40747;49.480;8.658;2023-01-06T10:32:49;0.32;;;0.28;;
54853;SDS011;40747;49.480;8.658;2023-01-06T10:35:14;0.65;;;0.30;;
54853;SDS011;40747;49.480;8.658;2023-01-06T10:37:45;2.03;;;0.70;;
54853;SDS011;40747;49.480;8.658;2023-01-06T10:40:30;2.13;;;0.70;;
54853;SDS011;40747;49.480;8.658;2023-01-06T10:43:10;1.08;;;0.50;;
54853;SDS011;40747;49.480;8.658;2023-01-06T10:50:40;1.20;;;0.70;;
54853;SDS011;40747;49.480;8.658;2023-01-06T10:53:06;1.25;;;0.47;;
54853;SDS011;40747;49.480;8.658;2023-01-06T10:56:15;1.10;;;0.60;;
54853;SDS011;40747;49.480;8.658;2023-01-06T10:58:27;0.32;;;0.30;;
54853;SDS011;40747;49.480;8.658;2023-01-06T11:01:07;1.08;;;0.70;;
54853;SDS011;40747;49.480;8.658;2023-01-06T11:03:34;4.05;;;0.93;;
54853;SDS011;40747;49.480;8.658;2023-01-06T11:06:08;0.40;;;0.40;;
54853;SDS011;40747;49.480;8.658;2023-01-06T11:08:52;1.88;;;0.75;;
54853;SDS011;40747;49.480;8.658;2023-01-06T11:11:18;2.97;;;0.70;;
54853;SDS011;40747;49.480;8.658;2023-01-06T11:13:50;0.52;;;0.40;;
54853;SDS011;40747;49.480;8.658;2023-01-06T11:16:29;0.93;;;0.63;;
54853;SDS011;40747;49.480;8.658;2023-01-06T11:18:57;2.65;;;0.77;;
54853;SDS011;40747;49.480;8.658;2023-01-06T11:21:42;1.60;;;0.73;;
54853;SDS011;40747;49.480;8.658;2023-01-06T11:24:16;0.73;;;0.35;;
54853;SDS011;40747;49.480;8.658;2023-01-06T11:26:52;0.30;;;0.30;;
54853;SDS011;40747;49.480;8.658;2023-01-06T11:29:38;0.50;;;0.20;;
54853;SDS011;40747;49.480;8.658;2023-01-06T11:32:14;0.43;;;0.35;;
54853;SDS011;40747;49.480;8.658;2023-01-06T11:34:40;0.50;;;0.20;;
54853;SDS011;40747;49.480;8.658;2023-01-06T11:37:15;0.50;;;0.30;;
54853;SDS011;40747;49.480;8.658;2023-01-06T11:39:52;0.43;;;0.30;;
54853;SDS011;40747;49.480;8.658;2023-01-06T11:42:18;1.30;;;0.85;;
54853;SDS011;40747;49.480;8.658;2023-01-06T11:44:43;3.38;;;1.02;;
54853;SDS011;40747;49.480;8.658;2023-01-06T11:47:17;1.02;;;0.40;;
54853;SDS011;40747;49.480;8.658;2023-01-06T11:49:49;0.20;;;0.20;;
54853;SDS011;40747;49.480;8.658;2023-01-06T11:52:23;0.30;;;0.30;;
54853;SDS011;40747;49.480;8.658;2023-01-06T12:00:27;0.10;;;0.10;;
54853;SDS011;40747;49.480;8.658;2023-01-06T12:08:48;0.50;;;0.30;;
54853;SDS011;40747;49.480;8.658;2023-01-06T12:11:27;0.30;;;0.30;;
54853;SDS011;40747;49.480;8.658;2023-01-06T12:14:16;0.30;;;0.30;;
54853;SDS011;40747;49.480;8.658;2023-01-06T12:20:09;0.22;;;0.13;;
54853;SDS011;40747;49.480;8.658;2023-01-06T12:22:30;2.25;;;0.88;;
54853;SDS011;40747;49.480;8.658;2023-01-06T12:25:21;0.88;;;0.55;;
54853;SDS011;40747;49.480;8.658;2023-01-06T12:30:31;2.20;;;1.45;;
54853;SDS011;40747;49.480;8.658;2023-01-06T12:35:59;0.63;;;0.43;;
54853;SDS011;40747;49.480;8.658;2023-01-06T12:41:15;0.68;;;0.50;;
54853;SDS011;40747;49.480;8.658;2023-01-06T12:43:49;0.32;;;0.32;;
54853;SDS011;40747;49.480;8.658;2023-01-06T12:46:33;0.98;;;0.50;;
54853;SDS011;40747;49.480;8.658;2023-01-06T12:49:19;1.67;;;1.33;;
54853;SDS011;40747;49.480;8.658;2023-01-06T12:52:00;0.98;;;0.85;;
54853;SDS011;40747;49.480;8.658;2023-01-06T12:54:31;1.45;;;0.95;;
54853;SDS011;40747;49.480;8.658;2023-01-06T12:57:10;2.70;;;0.88;;
54853;SDS011;40747;49.480;8.658;2023-01-06T13:12:56;2.60;;;0.30;;
54853;SDS011;40747;49.480;8.658;2023-01-06T13:15:26;0.28;;;0.13;;
54853;SDS011;40747;49.480;8.658;2023-01-06T13:25:51;0.98;;;0.50;;
54853;SDS011;40747;49.480;8.658;2023-01-06T13:36:52;1.00;;;0.60;;
54853;SDS011;40747;49.480;8.658;2023-01-06T13:39:35;2.40;;;0.90;;
54853;SDS011;40747;49.480;8.658;2023-01-06T13:42:09;1.83;;;0.85;;
54853;SDS011;40747;49.480;8.658;2023-01-06T13:44:43;1.65;;;1.25;;
54853;SDS011;40747;49.480;8.658;2023-01-06T13:47:15;1.20;;;0.73;;
54853;SDS011;40747;49.480;8.658;2023-01-06T13:49:45;0.95;;;0.55;;
54853;SDS011;40747;49.480;8.658;2023-01-06T13:52:27;1.88;;;0.80;;
54853;SDS011;40747;49.480;8.658;2023-01-06T13:57:52;2.05;;;0.55;;
54853;SDS011;40747;49.480;8.658;2023-01-06T14:00:19;4.88;;;1.20;;
54853;SDS011;40747;49.480;8.658;2023-01-06T14:07:50;0.50;;;0.50;;
54853;SDS011;40747;49.480;8.658;2023-01-06T14:12:57;0.55;;;0.43;;
54853;SDS011;40747;49.480;8.658;2023-01-06T14:15:28;1.50;;;0.60;;
54853;SDS011;40747;49.480;8.658;2023-01-06T14:18:01;2.25;;;0.60;;
54853;SDS011;40747;49.480;8.658;2023-01-06T14:20:29;1.45;;;0.50;;
54853;SDS011;40747;49.480;8.658;2023-01-06T14:23:01;0.98;;;0.40;;
54853;SDS011;40747;49.480;8.658;2023-01-06T14:25:30;0.30;;;0.30;;
54853;SDS011;40747;49.480;8.658;2023-01-06T14:30:31;0.65;;;0.50;;
54853;SDS011;40747;49.480;8.658;2023-01-06T14:33:02;2.00;;;0.65;;
54853;SDS011;40747;49.480;8.658;2023-01-06T14:35:35;3.00;;;0.40;;
54853;SDS011;40747;49.480;8.658;2023-01-06T14:38:12;4.43;;;0.55;;
54853;SDS011;40747;49.480;8.658;2023-01-06T14:41:00;0.57;;;0.40;;
54853;SDS011;40747;49.480;8.658;2023-01-06T14:43:33;0.73;;;0.55;;
54853;SDS011;40747;49.480;8.658;2023-01-06T14:46:07;0.30;;;0.25;;
54853;SDS011;40747;49.480;8.658;2023-01-06T14:48:41;1.33;;;0.57;;
54853;SDS011;40747;49.480;8.658;2023-01-06T14:51:12;1.27;;;0.63;;
54853;SDS011;40747;49.480;8.658;2023-01-06T14:53:42;0.70;;;0.30;;
54853;SDS011;40747;49.480;8.658;2023-01-06T14:56:16;0.70;;;0.40;;
54853;SDS011;40747;49.480;8.658;2023-01-06T14:58:44;0.38;;;0.38;;
54853;SDS011;40747;49.480;8.658;2023-01-06T15:04:17;1.50;;;0.80;;
54853;SDS011;40747;49.480;8.658;2023-01-06T15:07:03;0.80;;;0.70;;
54853;SDS011;40747;49.480;8.658;2023-01-06T15:09:40;2.15;;;1.42;;
54853;SDS011;40747;49.480;8.658;2023-01-06T15:12:24;2.60;;;1.13;;
54853;SDS011;40747;49.480;8.658;2023-01-06T15:14:52;0.98;;;0.80;;
54853;SDS011;40747;49.480;8.658;2023-01-06T15:17:17;1.10;;;0.90;;
54853;SDS011;40747;49.480;8.658;2023-01-06T15:19:43;6.00;;;0.55;;
54853;SDS011;40747;49.480;8.658;2023-01-06T15:22:12;1.10;;;0.57;;
54853;SDS011;40747;49.480;8.658;2023-01-06T15:24:43;1.60;;;1.00;;
54853;SDS011;40747;49.480;8.658;2023-01-06T15:27:12;1.00;;;0.45;;
54853;SDS011;40747;49.480;8.658;2023-01-06T15:29:49;0.77;;;0.55;;
54853;SDS011;40747;49.480;8.658;2023-01-06T15:32:16;2.08;;;0.70;;
54853;SDS011;40747;49.480;8.658;2023-01-06T15:34:42;3.47;;;0.88;;
54853;SDS011;40747;49.480;8.658;2023-01-06T15:37:14;0.70;;;0.50;;
54853;SDS011;40747;49.480;8.658;2023-01-06T15:39:45;0.80;;;0.60;;
54853;SDS011;40747;49.480;8.658;2023-01-06T15:42:11;1.35;;;0.63;;
54853;SDS011;40747;49.480;8.658;2023-01-06T15:44:38;1.88;;;0.90;;
54853;SDS011;40747;49.480;8.658;2023-01-06T15:49:36;1.35;;;1.00;;
54853;SDS011;40747;49.480;8.658;2023-01-06T15:52:06;2.13;;;1.25;;
54853;SDS011;40747;49.480;8.658;2023-01-06T15:54:41;1.88;;;1.20;;
54853;SDS011;40747;49.480;8.658;2023-01-06T15:57:10;2.22;;;1.02;;
54853;SDS011;40747;49.480;8.658;2023-01-06T15:59:37;1.75;;;1.30;;
54853;SDS011;40747;49.480;8.658;2023-01-06T16:02:03;1.88;;;1.38;;
54853;SDS011;40747;49.480;8.658;2023-01-06T16:04:28;1.42;;;0.65;;
54853;SDS011;40747;49.480;8.658;2023-01-06T16:07:18;2.70;;;1.40;;
54853;SDS011;40747;49.480;8.658;2023-01-06T16:09:45;2.35;;;1.45;;
54853;SDS011;40747;49.480;8.658;2023-01-06T16:12:15;2.65;;;1.65;;
54853;SDS011;40747;49.480;8.658;2023-01-06T16:14:45;3.17;;;1.17;;
54853;SDS011;40747;49.480;8.658;2023-01-06T16:19:56;3.45;;;1.30;;
54853;SDS011;40747;49.480;8.658;2023-01-06T16:25:24;4.85;;;1.75;;
54853;SDS011;40747;49.480;8.658;2023-01-06T16:27:52;2.40;;;1.10;;
54853;SDS011;40747;49.480;8.658;2023-01-06T16:30:27;0.93;;;0.60;;
54853;SDS011;40747;49.480;8.658;2023-01-06T16:32:54;5.03;;;1.40;;
54853;SDS011;40747;49.480;8.658;2023-01-06T16:35:21;1.95;;;1.30;;
54853;SDS011;40747;49.480;8.658;2023-01-06T16:37:48;1.05;;;0.65;;
54853;SDS011;40747;49.480;8.658;2023-01-06T16:40:14;0.55;;;0.55;;
54853;SDS011;40747;49.480;8.658;2023-01-06T16:42:41;1.02;;;0.40;;
54853;SDS011;40747;49.480;8.658;2023-01-06T16:45:09;2.40;;;0.90;;
54853;SDS011;40747;49.480;8.658;2023-01-06T16:47:51;4.45;;;2.30;;
54853;SDS011;40747;49.480;8.658;2023-01-06T16:52:58;1.85;;;1.02;;
54853;SDS011;40747;49.480;8.658;2023-01-06T16:58:15;2.53;;;1.25;;
54853;SDS011;40747;49.480;8.658;2023-01-06T17:00:42;3.00;;;1.30;;
54853;SDS011;40747;49.480;8.658;2023-01-06T17:03:15;0.98;;;0.90;;
54853;SDS011;40747;49.480;8.658;2023-01-06T17:05:48;1.50;;;0.70;;
54853;SDS011;40747;49.480;8.658;2023-01-06T17:08:14;1.08;;;0.45;;
54853;SDS011;40747;49.480;8.658;2023-01-06T17:10:41;1.20;;;0.77;;
54853;SDS011;40747;49.480;8.658;2023-01-06T17:13:09;1.50;;;0.55;;
54853;SDS011;40747;49.480;8.658;2023-01-06T17:15:57;2.75;;;1.10;;
54853;SDS011;40747;49.480;8.658;2023-01-06T17:18:25;2.30;;;1.60;;
54853;SDS011;40747;49.480;8.658;2023-01-06T17:21:09;2.78;;;1.10;;
54853;SDS011;40747;49.480;8.658;2023-01-06T17:23:41;2.85;;;1.40;;